Time;durP1;ratioP1;P1;durP2;ratioP2;P2;SDS_P1;SDS_P2;PMS_P1;PMS_P2;Temp;Humidity;BMP_temperature;BMP_pressure;BME280_temperature;BME280_humidity;BME280_pressure;Samples;Min_cycle;Max_cycle;Signal;HPM_P1;HPM_P2
2021/12/18 00:01:50;;;;;;;13.18;7.40;;;;;;;10.24;75.65;104230.56;4928821;28;20594;-59
2021/12/18 00:04:15;;;;;;;12.48;7.82;;;;;;;10.20;75.95;104228.50;4943416;28;20039;-60
2021/12/18 00:06:40;;;;;;;13.93;7.78;;;;;;;10.26;75.84;104226.31;4943333;28;20043;-59
2021/12/18 00:09:08;;;;;;;13.00;7.00;;;;;;;10.28;75.78;104216.91;4943494;28;20411;-60
2021/12/18 00:11:33;;;;;;;12.25;7.20;;;;;;;10.30;75.71;104223.16;4933396;28;20418;-61
2021/12/18 00:13:59;;;;;;;15.05;8.38;;;;;;;10.25;76.20;104227.13;4939760;28;20073;-60
2021/12/18 00:16:24;;;;;;;15.45;8.98;;;;;;;10.16;76.47;104220.50;4930293;28;20050;-61
2021/12/18 00:18:52;;;;;;;16.48;9.10;;;;;;;10.20;76.50;104213.78;4936283;28;20063;-61
2021/12/18 00:21:19;;;;;;;17.17;9.70;;;;;;;10.16;76.37;104216.94;4932245;28;20290;-59
2021/12/18 00:23:44;;;;;;;17.20;9.55;;;;;;;10.27;76.20;104220.31;4929170;28;20210;-59
2021/12/18 00:26:10;;;;;;;20.20;10.45;;;;;;;10.25;76.54;104212.38;4938408;28;20068;-59
2021/12/18 00:28:35;;;;;;;20.67;10.32;;;;;;;10.26;76.53;104210.69;4934880;28;20058;-60
2021/12/18 00:31:01;;;;;;;20.13;10.50;;;;;;;10.22;76.52;104217.41;4941505;28;20054;-60
2021/12/18 00:33:27;;;;;;;21.75;11.18;;;;;;;10.26;76.31;104214.19;4929614;28;20073;-60
2021/12/18 00:35:52;;;;;;;20.48;10.02;;;;;;;10.27;76.12;104217.72;4939090;28;20177;-60
2021/12/18 00:38:17;;;;;;;16.33;8.35;;;;;;;10.25;76.40;104212.38;4945322;28;20451;-60
2021/12/18 00:40:46;;;;;;;19.33;9.98;;;;;;;10.22;76.52;104198.25;4935277;28;20129;-60
2021/12/18 00:43:23;;;;;;;18.30;9.77;;;;;;;10.18;76.32;104210.19;4944442;28;20050;-60
2021/12/18 00:45:49;;;;;;;21.45;9.77;;;;;;;10.25;76.48;104208.88;4935534;28;20055;-60
2021/12/18 00:48:15;;;;;;;20.35;9.90;;;;;;;10.08;76.76;104202.47;4944389;28;20336;-60
2021/12/18 00:50:40;;;;;;;22.98;10.05;;;;;;;10.18;76.38;104194.53;4943014;28;20058;-60
2021/12/18 00:53:09;;;;;;;18.45;9.45;;;;;;;10.28;76.48;104199.56;4939495;28;20484;-59
2021/12/18 00:55:37;;;;;;;17.00;8.60;;;;;;;10.29;76.48;104204.00;4934942;28;20689;-60
2021/12/18 00:58:03;;;;;;;17.05;8.55;;;;;;;10.25;76.58;104199.34;4937983;28;20066;-59
2021/12/18 01:00:28;;;;;;;16.50;8.55;;;;;;;10.29;76.38;104195.25;4941118;28;20480;-59
2021/12/18 01:02:58;;;;;;;18.52;9.00;;;;;;;10.33;76.55;104198.16;4941958;28;20151;-59
2021/12/18 01:05:24;;;;;;;21.23;9.32;;;;;;;10.33;76.13;104200.78;4937295;28;20086;-59
2021/12/18 01:07:50;;;;;;;25.88;14.32;;;;;;;10.28;76.24;104191.75;4927645;28;20359;-61
2021/12/18 01:12:52;;;;;;;18.75;10.07;;;;;;;10.23;76.59;104184.41;4933146;28;20105;-60
2021/12/18 01:15:25;;;;;;;16.73;8.68;;;;;;;10.26;76.08;104193.34;4940556;28;20122;-60
2021/12/18 01:23:23;;;;;;;12.82;6.32;;;;;;;10.30;75.90;104194.47;4943274;28;21319;-59
2021/12/18 01:25:50;;;;;;;5.53;3.22;;;;;;;10.15;75.98;104191.69;4937181;28;20047;-59
2021/12/18 01:28:16;;;;;;;6.68;3.90;;;;;;;10.23;75.40;104194.84;4926812;28;20046;-59
2021/12/18 01:30:41;;;;;;;6.78;3.60;;;;;;;10.22;75.22;104193.03;4939688;28;20039;-59
2021/12/18 01:33:07;;;;;;;8.38;3.70;;;;;;;10.28;75.14;104206.47;4932613;28;20086;-60
2021/12/18 01:35:32;;;;;;;5.63;3.33;;;;;;;10.33;74.95;104202.47;4934571;28;20488;-60
2021/12/18 01:37:58;;;;;;;5.32;2.80;;;;;;;10.28;75.02;104193.44;4938756;28;20284;-60
2021/12/18 01:40:24;;;;;;;4.90;2.60;;;;;;;10.30;74.86;104205.81;4938963;28;20410;-60
2021/12/18 01:53:34;;;;;;;6.38;3.50;;;;;;;10.26;74.75;104206.38;4929979;28;20053;-60
2021/12/18 01:56:00;;;;;;;8.20;3.47;;;;;;;10.27;75.03;104209.88;4932200;28;20050;-60
2021/12/18 01:58:27;;;;;;;4.90;2.58;;;;;;;10.24;74.97;104210.59;4938781;28;20055;-59
2021/12/18 02:00:55;;;;;;;5.35;2.50;;;;;;;10.23;74.70;104208.78;4933590;28;20082;-60
2021/12/18 02:03:21;;;;;;;5.60;2.70;;;;;;;10.15;75.10;104209.94;4943464;28;20934;-61
2021/12/18 02:05:48;;;;;;;5.50;2.78;;;;;;;10.15;74.82;104212.53;4925113;28;20327;-58
2021/12/18 02:08:18;;;;;;;4.55;2.60;;;;;;;10.10;74.96;104196.59;4934219;28;20471;-59
2021/12/18 02:10:48;;;;;;;4.03;2.30;;;;;;;10.20;74.77;104200.75;4937038;28;20035;-58
2021/12/18 02:21:25;;;;;;;3.72;2.08;;;;;;;10.16;74.50;104186.59;4931094;28;20672;-59
2021/12/18 02:24:03;;;;;;;4.13;2.10;;;;;;;10.04;74.78;104188.34;4936517;28;20062;-59
2021/12/18 02:26:29;;;;;;;3.90;2.20;;;;;;;10.24;74.30;104189.75;4938467;28;20062;-59
2021/12/18 02:28:57;;;;;;;4.43;2.30;;;;;;;10.05;74.77;104184.94;4928105;28;20438;-60
2021/12/18 02:31:23;;;;;;;4.35;2.38;;;;;;;10.03;74.78;104175.19;4933713;28;20085;-60
2021/12/18 02:33:48;;;;;;;4.93;2.50;;;;;;;10.16;74.34;104172.63;4937409;28;20049;-60
2021/12/18 02:36:25;;;;;;;4.22;2.25;;;;;;;10.07;74.49;104183.31;4932463;28;20047;-59
2021/12/18 02:39:08;;;;;;;4.40;2.30;;;;;;;10.16;74.68;104178.78;4933966;28;20050;-60
2021/12/18 02:41:38;;;;;;;4.35;2.40;;;;;;;10.27;73.99;104176.88;4924588;28;20050;-59
2021/12/18 02:44:10;;;;;;;6.70;2.90;;;;;;;10.21;74.18;104176.47;4940656;28;20411;-59
2021/12/18 02:46:37;;;;;;;6.50;2.58;;;;;;;10.19;74.71;104183.28;4931758;28;20066;-59
2021/12/18 02:49:07;;;;;;;5.72;3.15;;;;;;;10.08;74.38;104179.03;4931435;28;20243;-60
2021/12/18 02:51:33;;;;;;;5.75;3.00;;;;;;;9.98;74.87;104174.91;4925860;28;20125;-60
2021/12/18 02:53:58;;;;;;;6.57;3.08;;;;;;;10.11;75.19;104164.50;4935125;28;20076;-60
2021/12/18 02:56:24;;;;;;;5.47;2.95;;;;;;;10.15;74.77;104168.22;4933902;28;20513;-59
2021/12/18 02:58:53;;;;;;;6.30;3.00;;;;;;;10.01;74.97;104162.06;4938669;28;20070;-59
2021/12/18 03:01:25;;;;;;;5.97;2.83;;;;;;;10.10;74.83;104165.31;4938987;28;20046;-59
2021/12/18 03:03:52;;;;;;;5.07;2.88;;;;;;;10.00;74.95;104165.47;4934264;28;20053;-59
2021/12/18 03:06:35;;;;;;;5.35;2.85;;;;;;;10.04;75.14;104157.06;4941193;28;20058;-60
2021/12/18 03:25:30;;;;;;;7.47;3.03;;;;;;;9.83;75.84;104163.41;4916742;28;20584;-61
2021/12/18 03:27:58;;;;;;;5.95;3.20;;;;;;;9.80;75.88;104170.13;4939976;28;20125;-60
2021/12/18 03:30:24;;;;;;;6.63;3.20;;;;;;;9.83;75.92;104168.63;4934532;28;20180;-60
2021/12/18 03:32:49;;;;;;;6.43;3.10;;;;;;;9.73;75.89;104163.59;4940598;28;20051;-59
2021/12/18 03:35:15;;;;;;;6.72;3.28;;;;;;;9.73;76.03;104161.88;4924207;28;20193;-59
2021/12/18 03:37:42;;;;;;;6.57;2.97;;;;;;;9.92;75.66;104165.75;4929242;28;20438;-61
2021/12/18 03:40:11;;;;;;;8.80;3.67;;;;;;;9.66;76.39;104158.75;4934781;28;20491;-60
2021/12/18 03:42:36;;;;;;;7.43;3.33;;;;;;;9.71;76.29;104160.88;4939774;28;20042;-59
2021/12/18 03:45:03;;;;;;;6.18;3.20;;;;;;;9.65;76.51;104154.31;4934716;28;20039;-59
2021/12/18 03:47:29;;;;;;;6.20;3.30;;;;;;;9.55;76.08;104144.97;4932732;28;20533;-60
2021/12/18 03:49:54;;;;;;;5.80;3.10;;;;;;;9.46;76.96;104148.63;4940323;28;20212;-59
2021/12/18 03:52:20;;;;;;;6.15;3.20;;;;;;;9.39;77.05;104141.22;4935914;28;20047;-60
2021/12/18 03:54:45;;;;;;;7.47;3.42;;;;;;;9.51;76.41;104147.28;4941712;28;20050;-60
2021/12/18 03:57:10;;;;;;;6.68;3.40;;;;;;;9.51;76.49;104147.28;4938613;28;20053;-60
2021/12/18 03:59:36;;;;;;;6.90;3.58;;;;;;;9.47;76.54;104143.53;4932248;28;20049;-59
2021/12/18 04:02:01;;;;;;;7.90;3.55;;;;;;;9.61;76.38;104147.09;4932644;28;20047;-60
2021/12/18 04:04:27;;;;;;;8.15;3.88;;;;;;;9.72;76.24;104143.53;4940281;28;20058;-59
2021/12/18 04:06:52;;;;;;;11.38;4.00;;;;;;;9.61;76.17;104153.22;4934337;28;20090;-59
2021/12/18 04:09:18;;;;;;;8.20;4.10;;;;;;;9.54;76.27;104140.56;4930562;28;20030;-59
2021/12/18 04:11:43;;;;;;;8.98;4.00;;;;;;;9.63;76.06;104145.53;4919090;28;20085;-59
2021/12/18 04:14:10;;;;;;;13.90;4.15;;;;;;;9.62;76.57;104143.72;4943928;28;20034;-59
2021/12/18 04:16:36;;;;;;;9.13;4.13;;;;;;;9.62;76.06;104151.53;4921395;28;20300;-59
2021/12/18 04:19:03;;;;;;;10.20;4.53;;;;;;;9.53;76.71;104151.78;4943929;28;20312;-61
2021/12/18 04:21:30;;;;;;;9.60;4.90;;;;;;;9.48;77.07;104158.38;4929196;28;20078;-59
2021/12/18 04:23:55;;;;;;;9.95;4.80;;;;;;;9.57;76.46;104155.53;4941786;28;20052;-61
2021/12/18 04:26:22;;;;;;;11.35;4.68;;;;;;;9.48;76.55;104150.56;4934383;28;20035;-58
2021/12/18 04:28:47;;;;;;;10.65;5.38;;;;;;;9.39;76.56;104152.53;4940939;28;20410;-60
2021/12/18 04:31:13;;;;;;;12.70;5.95;;;;;;;9.31;77.18;104164.09;4935219;28;20407;-59
2021/12/18 04:33:39;;;;;;;11.98;5.28;;;;;;;9.33;76.93;104160.78;4932795;28;20050;-59
2021/12/18 04:36:04;;;;;;;13.60;6.10;;;;;;;9.42;76.69;104173.56;4940904;28;20074;-60
2021/12/18 04:38:30;;;;;;;14.77;5.18;;;;;;;9.23;76.57;104165.25;4937029;28;20150;-60
2021/12/18 04:40:55;;;;;;;12.15;5.15;;;;;;;9.30;76.70;104164.88;4942082;28;20078;-60
2021/12/18 04:43:21;;;;;;;13.43;5.10;;;;;;;9.38;76.38;104168.03;4940433;28;20035;-59
2021/12/18 04:45:46;;;;;;;9.00;4.45;;;;;;;9.33;76.24;104167.72;4940938;28;20049;-59
2021/12/18 04:48:15;;;;;;;10.50;4.35;;;;;;;9.01;77.08;104169.72;4941808;28;20045;-61
2021/12/18 04:50:41;;;;;;;18.38;5.63;;;;;;;9.19;76.88;104166.75;4943636;28;20050;-59
2021/12/18 04:53:06;;;;;;;15.00;4.72;;;;;;;9.30;76.91;104162.28;4936781;28;20039;-60
2021/12/18 04:55:32;;;;;;;28.83;4.70;;;;;;;9.21;76.93;104166.84;4931828;28;20091;-60
2021/12/18 04:57:57;;;;;;;14.18;4.63;;;;;;;9.32;76.87;104171.13;4938762;28;20113;-59
2021/12/18 05:00:29;;;;;;;15.10;4.80;;;;;;;9.32;76.84;104164.22;4934974;28;20047;-60
2021/12/18 05:02:55;;;;;;;15.18;4.70;;;;;;;9.42;76.44;104165.75;4940194;28;20038;-60
2021/12/18 05:05:22;;;;;;;18.52;4.40;;;;;;;9.43;76.38;104169.25;4940172;28;20105;-59
2021/12/18 05:07:47;;;;;;;20.13;4.50;;;;;;;9.43;76.71;104166.66;4931000;28;20059;-59
2021/12/18 05:10:13;;;;;;;39.63;4.88;;;;;;;9.33;76.83;104168.59;4933415;28;20046;-59
2021/12/18 05:12:39;;;;;;;36.35;4.93;;;;;;;9.21;77.28;104179.88;4928341;28;20047;-60
2021/12/18 05:15:05;;;;;;;27.65;5.00;;;;;;;9.30;77.46;104175.31;4938176;28;20034;-60
2021/12/18 05:17:31;;;;;;;16.70;4.90;;;;;;;9.37;77.27;104182.75;4925605;28;20082;-60
2021/12/18 05:19:56;;;;;;;41.20;5.60;;;;;;;9.28;77.73;104183.00;4940533;28;20137;-59
2021/12/18 05:22:21;;;;;;;31.25;5.60;;;;;;;9.35;77.63;104181.72;4939740;28;20557;-60
2021/12/18 05:24:47;;;;;;;38.47;6.10;;;;;;;9.34;77.76;104183.44;4933228;28;20555;-60
2021/12/18 05:27:12;;;;;;;40.00;5.47;;;;;;;9.38;77.52;104184.56;4936998;28;20054;-62
2021/12/18 05:29:37;;;;;;;24.85;5.25;;;;;;;9.41;77.55;104186.47;4928440;28;20484;-59
2021/12/18 05:32:03;;;;;;;60.63;7.40;;;;;;;9.28;77.53;104182.09;4936872;28;21060;-60
2021/12/18 05:34:33;;;;;;;25.20;5.40;;;;;;;9.22;78.14;104184.25;4932576;28;20180;-61
2021/12/18 05:39:28;;;;;;;72.47;5.90;;;;;;;9.13;77.98;104189.72;4923439;28;20777;-59
2021/12/18 05:41:54;;;;;;;21.10;5.43;;;;;;;9.39;77.38;104178.56;4940205;28;20038;-60
2021/12/18 05:44:21;;;;;;;42.95;5.97;;;;;;;9.35;77.63;104173.91;4942028;28;20042;-59
2021/12/18 05:46:47;;;;;;;53.33;6.55;;;;;;;9.16;78.13;104179.53;4939116;28;20356;-58
2021/12/18 05:49:12;;;;;;;25.02;6.07;;;;;;;9.30;77.79;104178.81;4926050;28;20109;-61
2021/12/18 05:51:38;;;;;;;27.30;6.43;;;;;;;9.44;77.71;104179.81;4929614;28;20592;-60
2021/12/18 05:54:04;;;;;;;32.47;5.50;;;;;;;9.36;77.58;104174.03;4938200;28;20155;-60
2021/12/18 05:56:29;;;;;;;29.88;5.88;;;;;;;9.41;77.52;104169.16;4928494;28;20050;-60
2021/12/18 05:58:55;;;;;;;31.30;6.20;;;;;;;9.48;77.04;104175.69;4932631;28;20455;-59
2021/12/18 06:01:21;;;;;;;25.80;5.65;;;;;;;9.45;77.55;104168.59;4942735;28;20045;-60
2021/12/18 06:03:47;;;;;;;24.60;5.43;;;;;;;9.46;77.20;104172.97;4935020;28;20576;-60
2021/12/18 06:06:13;;;;;;;20.40;5.15;;;;;;;9.47;76.86;104168.66;4941818;28;20398;-60
2021/12/18 06:08:38;;;;;;;22.48;4.63;;;;;;;9.46;76.90;104177.28;4941351;28;20129;-60
2021/12/18 06:11:10;;;;;;;16.85;4.60;;;;;;;9.47;76.89;104161.78;4923188;28;20053;-59
2021/12/18 06:13:35;;;;;;;20.70;4.60;;;;;;;9.35;76.83;104174.81;4926327;28;20053;-59
2021/12/18 06:16:00;;;;;;;15.95;3.65;;;;;;;9.38;76.97;104155.94;4939992;28;20372;-59
2021/12/18 06:18:26;;;;;;;41.33;4.30;;;;;;;9.18;77.23;104169.22;4937360;28;20109;-59
2021/12/18 06:20:51;;;;;;;21.80;4.05;;;;;;;9.13;77.52;104165.41;4937816;28;20534;-60
2021/12/18 06:23:16;;;;;;;14.68;3.88;;;;;;;9.22;77.10;104166.94;4935498;28;20473;-60
2021/12/18 06:25:42;;;;;;;33.20;4.22;;;;;;;9.26;76.90;104165.47;4946788;28;20073;-59
2021/12/18 06:28:07;;;;;;;19.05;4.30;;;;;;;9.26;76.77;104160.28;4942497;28;20193;-61
2021/12/18 06:30:33;;;;;;;35.25;4.93;;;;;;;9.26;77.13;104168.09;4942376;28;20045;-60
2021/12/18 06:32:58;;;;;;;20.15;3.97;;;;;;;9.31;77.11;104165.00;4937689;28;20057;-59
2021/12/18 06:35:23;;;;;;;25.92;4.30;;;;;;;9.19;77.47;104163.22;4929713;28;20490;-59
2021/12/18 06:37:49;;;;;;;18.17;4.47;;;;;;;9.25;76.95;104167.19;4933899;28;20398;-61
2021/12/18 06:40:14;;;;;;;89.10;5.18;;;;;;;9.11;77.43;104170.47;4938248;28;20466;-60
2021/12/18 06:42:39;;;;;;;28.13;4.28;;;;;;;9.21;76.83;104172.06;4938665;28;20065;-60
2021/12/18 06:45:06;;;;;;;59.45;4.30;;;;;;;9.16;77.33;104166.50;4941301;28;20054;-60
2021/12/18 06:47:31;;;;;;;92.75;5.93;;;;;;;8.95;77.78;104164.97;4935397;28;20428;-60
2021/12/18 06:49:56;;;;;;;25.23;3.97;;;;;;;9.10;77.08;104163.47;4929338;28;20043;-60
2021/12/18 06:52:22;;;;;;;23.42;4.22;;;;;;;9.17;77.40;104162.19;4937289;28;20047;-60
2021/12/18 06:54:47;;;;;;;25.27;4.18;;;;;;;9.10;77.31;104166.06;4940631;28;20042;-60
2021/12/18 06:57:12;;;;;;;35.75;4.40;;;;;;;9.06;77.64;104158.84;4940579;28;20129;-60
2021/12/18 06:59:38;;;;;;;34.17;4.38;;;;;;;9.19;76.92;104160.63;4930940;28;20808;-59
2021/12/18 07:02:03;;;;;;;25.15;4.30;;;;;;;9.14;77.41;104159.41;4922285;28;20645;-59
2021/12/18 07:04:28;;;;;;;41.83;4.57;;;;;;;8.84;77.69;104171.13;4941176;28;20048;-59
2021/12/18 07:06:54;;;;;;;16.17;3.75;;;;;;;8.97;77.18;104171.19;4941521;28;20407;-59
2021/12/18 07:09:23;;;;;;;19.83;3.95;;;;;;;9.01;77.03;104175.84;4938962;28;20378;-60
2021/12/18 07:11:48;;;;;;;38.47;4.40;;;;;;;9.02;77.54;104177.66;4937454;28;20077;-60
2021/12/18 07:14:13;;;;;;;96.18;7.75;;;;;;;8.71;77.68;104173.59;4930675;28;20130;-60
2021/12/18 07:16:39;;;;;;;30.95;5.18;;;;;;;8.94;77.28;104187.50;4940016;28;20066;-60
2021/12/18 07:19:05;;;;;;;60.65;5.05;;;;;;;8.85;77.72;104176.41;4936859;28;20047;-60
2021/12/18 07:21:30;;;;;;;88.32;5.40;;;;;;;8.76;77.28;104185.25;4929391;28;20057;-60
2021/12/18 07:23:55;;;;;;;44.20;4.47;;;;;;;8.81;77.48;104174.38;4927800;28;20065;-60
2021/12/18 07:26:21;;;;;;;68.25;4.68;;;;;;;8.74;77.47;104179.00;4934802;28;20173;-60
2021/12/18 07:28:46;;;;;;;22.77;4.28;;;;;;;8.66;77.43;104173.25;4936445;28;20100;-60
2021/12/18 07:31:11;;;;;;;63.50;4.47;;;;;;;8.71;77.27;104174.50;4937438;28;20525;-59
2021/12/18 07:33:41;;;;;;;47.88;4.30;;;;;;;8.60;77.22;104182.31;4924988;28;20527;-61
2021/12/18 07:36:07;;;;;;;49.33;3.88;;;;;;;8.48;77.59;104182.28;4929473;28;20471;-60
2021/12/18 07:38:34;;;;;;;36.70;4.50;;;;;;;8.45;77.56;104182.97;4937007;28;20047;-60
2021/12/18 07:40:59;;;;;;;36.58;4.20;;;;;;;8.47;77.42;104181.41;4946112;28;20121;-60
2021/12/18 07:43:25;;;;;;;30.67;3.80;;;;;;;8.51;77.54;104177.31;4939231;28;20082;-59
2021/12/18 07:45:50;;;;;;;29.85;4.00;;;;;;;8.41;77.84;104178.34;4935420;28;20174;-60
2021/12/18 07:48:19;;;;;;;33.15;3.42;;;;;;;8.40;77.36;104183.44;4933076;28;21442;-60
2021/12/18 07:50:45;;;;;;;32.72;3.28;;;;;;;8.25;77.90;104184.81;4940112;28;20085;-60
2021/12/18 07:53:11;;;;;;;17.88;3.90;;;;;;;8.40;77.87;104186.03;4936372;28;20039;-60
2021/12/18 07:55:37;;;;;;;25.92;3.45;;;;;;;8.42;77.34;104184.44;4937343;28;20588;-61
2021/12/18 07:58:04;;;;;;;20.92;3.65;;;;;;;8.45;77.18;104188.19;4924178;28;20054;-60
2021/12/18 08:00:30;;;;;;;16.92;4.03;;;;;;;8.50;77.35;104178.13;4943131;28;20125;-59
2021/12/18 08:02:55;;;;;;;19.55;3.83;;;;;;;8.57;76.76;104182.97;4943354;28;20038;-60
2021/12/18 08:05:22;;;;;;;30.20;4.20;;;;;;;8.53;76.88;104183.56;4939612;28;20047;-59
2021/12/18 08:07:47;;;;;;;36.35;4.07;;;;;;;8.52;76.78;104182.66;4938358;28;20479;-59
2021/12/18 08:10:15;;;;;;;33.95;3.78;;;;;;;8.46;77.14;104177.00;4943685;28;20110;-60
2021/12/18 08:12:40;;;;;;;16.35;4.03;;;;;;;8.53;76.95;104181.88;4943829;28;20525;-60
2021/12/18 08:15:07;;;;;;;20.35;3.60;;;;;;;8.59;76.66;104183.09;4939846;28;20133;-60
2021/12/18 08:17:33;;;;;;;33.40;3.78;;;;;;;8.61;76.71;104181.50;4925639;28;20038;-60
2021/12/18 08:19:58;;;;;;;31.10;3.80;;;;;;;8.52;76.75;104181.75;4941638;28;20050;-59
2021/12/18 08:22:23;;;;;;;22.85;3.83;;;;;;;8.60;76.44;104174.53;4940541;28;20196;-60
2021/12/18 08:24:49;;;;;;;20.25;3.83;;;;;;;8.60;76.61;104191.00;4945896;28;20623;-60
2021/12/18 08:27:14;;;;;;;62.33;5.28;;;;;;;8.43;77.08;104200.16;4940965;28;20052;-60
2021/12/18 08:29:40;;;;;;;34.92;4.85;;;;;;;8.48;77.03;104195.28;4925733;28;20632;-60
2021/12/18 08:32:05;;;;;;;19.80;4.30;;;;;;;8.43;76.82;104194.94;4941728;28;20070;-60
2021/12/18 08:34:31;;;;;;;31.92;4.32;;;;;;;8.54;76.77;104198.34;4935934;28;20135;-60
2021/12/18 08:36:56;;;;;;;18.77;4.20;;;;;;;8.53;76.81;104202.66;4942123;28;20059;-60
2021/12/18 08:39:22;;;;;;;99.18;4.97;;;;;;;8.30;76.85;104201.66;4940820;28;20039;-61
2021/12/18 08:41:47;;;;;;;66.82;4.18;;;;;;;8.20;77.22;104205.28;4935286;28;20125;-59
2021/12/18 08:44:20;;;;;;;39.22;4.22;;;;;;;8.21;77.07;104201.00;4943275;28;20186;-59
2021/12/18 08:46:45;;;;;;;36.72;4.50;;;;;;;8.30;77.30;104199.06;4935154;28;20043;-60
2021/12/18 08:49:11;;;;;;;37.33;4.53;;;;;;;8.44;76.81;104198.47;4935666;28;20144;-59
2021/12/18 08:51:37;;;;;;;215.90;6.70;;;;;;;8.23;77.30;104192.53;4928418;28;20082;-60
2021/12/18 08:54:04;;;;;;;88.72;6.13;;;;;;;8.40;76.79;104199.94;4959718;28;20152;-60
2021/12/18 08:56:29;;;;;;;75.18;6.22;;;;;;;8.30;77.13;104202.63;4930119;28;20051;-59
2021/12/18 08:58:54;;;;;;;20.17;5.07;;;;;;;8.43;77.10;104204.44;4940632;28;20049;-60
2021/12/18 09:01:21;;;;;;;66.68;6.00;;;;;;;8.45;76.73;104203.78;4931302;28;20624;-59
2021/12/18 09:03:48;;;;;;;130.02;8.20;;;;;;;8.51;76.78;104205.94;4938847;28;20546;-60
2021/12/18 09:06:14;;;;;;;152.75;7.10;;;;;;;8.49;76.79;104200.59;4942351;28;20039;-60
2021/12/18 09:08:39;;;;;;;256.92;8.55;;;;;;;8.43;76.48;104197.56;4932772;28;20251;-60
2021/12/18 09:11:04;;;;;;;132.50;7.28;;;;;;;8.45;76.85;104197.69;4946003;28;20043;-59
2021/12/18 09:13:30;;;;;;;50.05;6.05;;;;;;;8.63;76.56;104201.63;4953213;28;20201;-60
2021/12/18 09:15:55;;;;;;;32.28;6.10;;;;;;;8.70;75.96;104201.31;4925507;28;20443;-59
2021/12/18 09:18:20;;;;;;;49.05;6.10;;;;;;;8.72;76.11;104197.09;4938569;28;20515;-61
2021/12/18 09:20:46;;;;;;;87.88;7.45;;;;;;;8.50;76.06;104197.22;4940076;28;20430;-60
2021/12/18 09:23:16;;;;;;;92.15;5.78;;;;;;;8.31;76.59;104195.72;4932306;28;20043;-59
2021/12/18 09:25:41;;;;;;;72.30;5.10;;;;;;;8.30;76.48;104197.41;4908534;28;20130;-60
2021/12/18 09:28:06;;;;;;;35.17;4.93;;;;;;;8.38;76.03;104193.72;4941771;28;20045;-60
2021/12/18 09:30:32;;;;;;;59.22;4.72;;;;;;;8.48;76.14;104192.69;4930847;28;20516;-60
2021/12/18 09:32:58;;;;;;;15.20;4.47;;;;;;;8.55;76.34;104190.66;4937053;28;20046;-59
2021/12/18 09:35:23;;;;;;;57.90;5.38;;;;;;;8.64;76.31;104194.75;4937337;28;20073;-60
2021/12/18 09:37:49;;;;;;;25.13;5.07;;;;;;;8.79;75.86;104186.34;4928444;28;20046;-59
2021/12/18 09:40:17;;;;;;;59.28;5.47;;;;;;;8.74;75.70;104189.41;4939830;28;20047;-59
2021/12/18 09:42:42;;;;;;;30.67;4.25;;;;;;;8.77;75.83;104193.16;4940647;28;20600;-60
2021/12/18 09:45:10;;;;;;;28.80;4.13;;;;;;;8.70;75.62;104192.59;4946736;28;20533;-60
2021/12/18 09:47:37;;;;;;;19.33;4.38;;;;;;;8.79;75.23;104190.66;4927848;28;20522;-60
2021/12/18 09:50:03;;;;;;;44.42;5.22;;;;;;;8.73;75.36;104188.50;4929054;28;20046;-59
2021/12/18 09:52:30;;;;;;;18.27;3.80;;;;;;;8.73;75.65;104191.13;4933215;28;20113;-60
2021/12/18 09:54:57;;;;;;;18.42;3.30;;;;;;;8.73;75.19;104183.31;4937245;28;20130;-59
2021/12/18 09:57:22;;;;;;;14.73;3.22;;;;;;;8.84;75.60;104189.31;4930231;28;20050;-59
2021/12/18 09:59:48;;;;;;;26.98;3.40;;;;;;;8.70;75.14;104180.50;4933346;28;20788;-59
2021/12/18 10:02:13;;;;;;;13.25;2.92;;;;;;;8.84;74.89;104178.91;4940240;28;20081;-60
2021/12/18 10:04:39;;;;;;;26.60;2.90;;;;;;;8.79;75.32;104172.44;4942117;28;20038;-60
2021/12/18 10:07:23;;;;;;;10.07;3.30;;;;;;;8.96;75.21;104182.41;4938003;28;20051;-62
2021/12/18 10:09:50;;;;;;;11.83;3.23;;;;;;;9.06;75.20;104164.06;4925478;28;20066;-60
2021/12/18 10:12:27;;;;;;;11.90;3.50;;;;;;;9.15;75.20;104172.50;4936495;28;20060;-59
2021/12/18 10:14:55;;;;;;;10.80;2.97;;;;;;;9.15;74.89;104174.22;4956461;28;20073;-60
2021/12/18 10:17:21;;;;;;;8.75;2.97;;;;;;;9.20;74.77;104167.66;4932676;28;20310;-59
2021/12/18 10:19:47;;;;;;;37.13;3.70;;;;;;;9.15;74.76;104179.44;4936886;28;20051;-59
2021/12/18 10:22:13;;;;;;;27.95;3.20;;;;;;;8.81;74.38;104182.19;4941637;28;20066;-59
2021/12/18 10:24:40;;;;;;;51.72;3.75;;;;;;;8.98;74.48;104177.28;4942906;28;21227;-60
2021/12/18 10:27:16;;;;;;;7.65;3.08;;;;;;;9.17;74.23;104183.94;4933563;28;20138;-60
2021/12/18 10:29:42;;;;;;;8.20;3.40;;;;;;;9.32;74.52;104184.13;4926489;28;20399;-60
2021/12/18 10:32:10;;;;;;;12.75;3.40;;;;;;;9.20;74.67;104175.47;4935025;28;20659;-60
2021/12/18 10:34:37;;;;;;;9.45;3.28;;;;;;;9.26;73.96;104179.41;4939259;28;20493;-59
2021/12/18 10:37:09;;;;;;;12.68;3.15;;;;;;;9.35;73.63;104177.44;4925673;28;20790;-60
2021/12/18 10:39:37;;;;;;;52.22;3.50;;;;;;;9.02;73.48;104175.03;4934162;28;20049;-61
2021/12/18 10:42:19;;;;;;;34.30;3.08;;;;;;;8.92;74.01;104186.47;4927594;28;20485;-60
2021/12/18 10:45:06;;;;;;;7.88;3.03;;;;;;;9.05;73.67;104175.25;4934381;28;20070;-60
2021/12/18 10:48:03;;;;;;;40.17;3.35;;;;;;;8.97;73.86;104186.78;4923370;28;20153;-59
2021/12/18 10:50:40;;;;;;;13.43;3.35;;;;;;;9.07;73.78;104181.47;4937817;28;20047;-59
2021/12/18 10:53:22;;;;;;;17.33;3.33;;;;;;;8.75;74.13;104179.13;4929202;28;20054;-59
2021/12/18 10:55:51;;;;;;;23.15;3.45;;;;;;;8.80;74.44;104172.56;4929994;28;20039;-59
2021/12/18 10:58:27;;;;;;;16.92;3.42;;;;;;;8.88;74.14;104178.34;4938206;28;20074;-59
2021/12/18 11:00:58;;;;;;;19.63;3.65;;;;;;;8.83;74.06;104178.00;4928719;28;20813;-59
2021/12/18 11:03:44;;;;;;;13.70;2.85;;;;;;;8.80;74.08;104172.56;4936599;28;20457;-60
2021/12/18 11:06:24;;;;;;;12.10;3.20;;;;;;;8.76;73.97;104170.53;4944318;28;20059;-59
2021/12/18 11:09:04;;;;;;;8.10;3.00;;;;;;;8.99;74.09;104176.50;4942044;28;20105;-59
2021/12/18 11:14:45;;;;;;;8.65;3.47;;;;;;;9.06;74.23;104166.66;4936311;28;20108;-60
2021/12/18 11:17:14;;;;;;;11.82;3.17;;;;;;;9.12;73.71;104167.09;4933260;28;20038;-59
2021/12/18 11:19:41;;;;;;;14.40;3.15;;;;;;;9.00;73.14;104166.22;4928231;28;20054;-59
2021/12/18 11:22:10;;;;;;;17.65;3.38;;;;;;;8.92;73.14;104164.75;4934628;28;20588;-61
2021/12/18 11:24:41;;;;;;;8.75;3.60;;;;;;;9.09;73.43;104166.84;4936562;28;20121;-60
2021/12/18 11:27:14;;;;;;;19.58;3.53;;;;;;;8.83;73.52;104165.00;4930923;28;20495;-60
2021/12/18 11:30:08;;;;;;;13.57;3.60;;;;;;;8.79;73.93;104162.94;4921674;28;20070;-61
2021/12/18 11:32:40;;;;;;;8.95;4.03;;;;;;;8.96;73.92;104152.06;4939053;28;20034;-59
2021/12/18 11:35:12;;;;;;;8.40;3.78;;;;;;;9.12;74.13;104160.97;4929952;28;20134;-59
2021/12/18 11:37:46;;;;;;;12.57;3.78;;;;;;;9.15;73.97;104150.81;4928374;28;20141;-61
2021/12/18 11:40:14;;;;;;;6.95;3.22;;;;;;;9.24;73.90;104151.44;4937058;28;20054;-59
2021/12/18 11:42:41;;;;;;;13.90;3.70;;;;;;;9.33;74.00;104150.38;4936386;28;20043;-60
2021/12/18 11:45:07;;;;;;;7.90;3.30;;;;;;;9.52;73.59;104147.34;4930658;28;21180;-60
2021/12/18 11:47:53;;;;;;;6.43;3.20;;;;;;;9.49;72.75;104136.75;4934733;28;20169;-60
2021/12/18 11:50:27;;;;;;;9.40;3.13;;;;;;;9.40;72.85;104141.28;4956693;28;20133;-59
2021/12/18 11:53:16;;;;;;;10.43;3.65;;;;;;;9.48;73.38;104127.13;4936284;28;20911;-60
2021/12/18 11:55:57;;;;;;;9.00;3.90;;;;;;;9.44;73.07;104132.00;4932070;28;20118;-60
2021/12/18 11:58:33;;;;;;;10.10;4.00;;;;;;;9.39;73.26;104123.88;4932596;28;21208;-60
2021/12/18 12:01:07;;;;;;;13.23;3.50;;;;;;;9.35;73.50;104125.34;4932949;28;20070;-59
2021/12/18 12:03:37;;;;;;;9.45;3.65;;;;;;;9.34;73.97;104127.84;4934526;28;20073;-60
2021/12/18 12:06:30;;;;;;;21.73;3.97;;;;;;;9.19;73.44;104124.19;4938268;28;20053;-62
2021/12/18 12:09:29;;;;;;;15.07;4.03;;;;;;;9.24;73.94;104128.00;4937740;28;20073;-62
2021/12/18 12:12:04;;;;;;;9.93;3.65;;;;;;;9.03;74.64;104122.16;4928263;28;20229;-60
2021/12/18 12:14:31;;;;;;;14.68;3.78;;;;;;;9.15;74.04;104119.56;4938854;28;20174;-60
2021/12/18 12:17:02;;;;;;;7.78;3.35;;;;;;;9.22;73.37;104113.97;4941156;28;20049;-60